Skip Navigation LinksHome page > Weather > Current weather Skip Navigation Links

Current Weather

Chicago O'Hare Intl, Chicago

For information only: do not use for flight planning or navigation.
Latest weather
Observation time Tuesday, February 9, 2016 11:34 AM CST
Local time Tuesday, February 9, 2016 11:46 AM CST
Flight conditions Marginal Visual Meteorological Conditions
Winds
Wind direction Northwest (310°)
Wind speed 14 mph
Visibility 10 mi.
Sky condition
Ceiling 2,500 ft. broken clouds
Cloud layer broken clouds 2,500 ft.
Cloud layer broken clouds 25,000 ft.
Temperature 18°F
Dewpoint 9°F
Altimeter 29.83 in.Hg
Derived measurements
Relative humidity 67%
Wind chill 4°F
Density altitude -2048 ft.
Remarks
Special weather observation.
METAR SPUS31 KWBC 091738 SPECI KORD 091734Z 31012KT 10SM BKN025 BKN250 M08/M13 A2983

Settings

Location code

InnerDrive.Weather 4.0.5722.1 Release CLR 4.0.30319.34209
Copyright ©2015 Inner Drive Technology. All rights reserved. Portions Copyright ©1986-2015 David Braverman.

Find weather

Site navigation


Skip Navigation Links

Place info

Page info

PayPal - The safer, easier way to pay online!

Return home.

Copyright ©2016 Inner Drive Technology. Purveyors of fine, hand-crafted computer software. Page printed 2016-02-09T17:46:14 UTC.